sensor_id;sensor_type;location;lat;lon;timestamp;P1;durP1;ratioP1;P2;durP2;ratioP2
40793;SDS011;26502;51.886;15.604;2023-07-13T00:04:52;3.00;;;2.60;;
40793;SDS011;26502;51.886;15.604;2023-07-13T00:09:58;3.10;;;2.30;;
40793;SDS011;26502;51.886;15.604;2023-07-13T00:15:05;2.60;;;2.40;;
40793;SDS011;26502;51.886;15.604;2023-07-13T00:20:15;2.60;;;2.00;;
40793;SDS011;26502;51.886;15.604;2023-07-13T00:25:24;3.10;;;2.50;;
40793;SDS011;26502;51.886;15.604;2023-07-13T00:30:30;3.20;;;2.40;;
40793;SDS011;26502;51.886;15.604;2023-07-13T00:35:36;4.40;;;2.00;;
40793;SDS011;26502;51.886;15.604;2023-07-13T00:40:42;2.10;;;1.90;;
40793;SDS011;26502;51.886;15.604;2023-07-13T00:51:32;4.50;;;2.30;;
40793;SDS011;26502;51.886;15.604;2023-07-13T00:56:41;2.60;;;2.20;;
40793;SDS011;26502;51.886;15.604;2023-07-13T01:06:53;3.60;;;2.40;;
40793;SDS011;26502;51.886;15.604;2023-07-13T01:12:00;5.00;;;2.90;;
40793;SDS011;26502;51.886;15.604;2023-07-13T01:17:07;3.40;;;2.40;;
40793;SDS011;26502;51.886;15.604;2023-07-13T01:22:16;4.40;;;2.20;;
40793;SDS011;26502;51.886;15.604;2023-07-13T01:27:27;2.40;;;2.20;;
40793;SDS011;26502;51.886;15.604;2023-07-13T01:32:33;3.40;;;2.30;;
40793;SDS011;26502;51.886;15.604;2023-07-13T01:37:39;7.80;;;2.40;;
40793;SDS011;26502;51.886;15.604;2023-07-13T01:42:47;3.70;;;2.60;;
40793;SDS011;26502;51.886;15.604;2023-07-13T01:53:01;2.50;;;2.30;;
40793;SDS011;26502;51.886;15.604;2023-07-13T01:58:07;6.80;;;2.40;;
40793;SDS011;26502;51.886;15.604;2023-07-13T02:03:13;6.70;;;2.70;;
40793;SDS011;26502;51.886;15.604;2023-07-13T02:08:20;3.60;;;2.60;;
40793;SDS011;26502;51.886;15.604;2023-07-13T02:13:26;6.30;;;2.60;;
40793;SDS011;26502;51.886;15.604;2023-07-13T02:18:32;2.80;;;2.60;;
40793;SDS011;26502;51.886;15.604;2023-07-13T02:23:38;2.70;;;2.20;;
40793;SDS011;26502;51.886;15.604;2023-07-13T02:28:45;4.10;;;2.20;;
40793;SDS011;26502;51.886;15.604;2023-07-13T02:33:51;3.00;;;2.10;;
40793;SDS011;26502;51.886;15.604;2023-07-13T02:38:57;2.60;;;2.40;;
40793;SDS011;26502;51.886;15.604;2023-07-13T02:49:11;5.50;;;2.00;;
40793;SDS011;26502;51.886;15.604;2023-07-13T02:54:16;2.30;;;2.10;;
40793;SDS011;26502;51.886;15.604;2023-07-13T02:59:22;5.20;;;2.10;;
40793;SDS011;26502;51.886;15.604;2023-07-13T03:04:28;3.70;;;2.20;;
40793;SDS011;26502;51.886;15.604;2023-07-13T03:09:34;4.30;;;2.00;;
40793;SDS011;26502;51.886;15.604;2023-07-13T03:14:41;5.40;;;2.60;;
40793;SDS011;26502;51.886;15.604;2023-07-13T03:19:47;4.60;;;1.90;;
40793;SDS011;26502;51.886;15.604;2023-07-13T03:24:56;3.30;;;2.30;;
40793;SDS011;26502;51.886;15.604;2023-07-13T03:30:02;2.90;;;1.90;;
40793;SDS011;26502;51.886;15.604;2023-07-13T03:35:10;4.80;;;2.50;;
40793;SDS011;26502;51.886;15.604;2023-07-13T03:40:16;2.20;;;2.00;;
40793;SDS011;26502;51.886;15.604;2023-07-13T03:45:22;4.30;;;2.10;;
40793;SDS011;26502;51.886;15.604;2023-07-13T03:50:28;2.40;;;2.10;;
40793;SDS011;26502;51.886;15.604;2023-07-13T03:55:33;5.30;;;2.40;;
40793;SDS011;26502;51.886;15.604;2023-07-13T04:00:39;3.90;;;2.20;;
40793;SDS011;26502;51.886;15.604;2023-07-13T04:05:45;3.70;;;2.10;;
40793;SDS011;26502;51.886;15.604;2023-07-13T04:10:51;6.10;;;2.30;;
40793;SDS011;26502;51.886;15.604;2023-07-13T04:15:57;9.50;;;2.70;;
40793;SDS011;26502;51.886;15.604;2023-07-13T04:21:03;3.30;;;2.70;;
40793;SDS011;26502;51.886;15.604;2023-07-13T04:26:09;3.20;;;2.50;;
40793;SDS011;26502;51.886;15.604;2023-07-13T04:31:15;3.30;;;2.70;;
40793;SDS011;26502;51.886;15.604;2023-07-13T04:36:21;3.10;;;2.70;;
40793;SDS011;26502;51.886;15.604;2023-07-13T04:46:34;6.80;;;3.10;;
40793;SDS011;26502;51.886;15.604;2023-07-13T04:51:40;6.00;;;2.50;;
40793;SDS011;26502;51.886;15.604;2023-07-13T04:56:45;3.00;;;2.50;;
40793;SDS011;26502;51.886;15.604;2023-07-13T05:01:51;3.90;;;2.90;;
40793;SDS011;26502;51.886;15.604;2023-07-13T05:06:57;2.90;;;2.70;;
40793;SDS011;26502;51.886;15.604;2023-07-13T05:12:03;7.40;;;2.90;;
40793;SDS011;26502;51.886;15.604;2023-07-13T05:17:10;3.70;;;2.40;;
40793;SDS011;26502;51.886;15.604;2023-07-13T05:22:15;4.20;;;2.70;;
40793;SDS011;26502;51.886;15.604;2023-07-13T05:27:21;4.00;;;2.50;;
40793;SDS011;26502;51.886;15.604;2023-07-13T05:32:27;4.30;;;2.60;;
40793;SDS011;26502;51.886;15.604;2023-07-13T05:37:33;5.60;;;2.70;;
40793;SDS011;26502;51.886;15.604;2023-07-13T05:42:39;5.00;;;3.00;;
40793;SDS011;26502;51.886;15.604;2023-07-13T05:47:45;5.30;;;3.30;;
40793;SDS011;26502;51.886;15.604;2023-07-13T05:52:51;5.80;;;2.90;;
40793;SDS011;26502;51.886;15.604;2023-07-13T05:57:57;4.90;;;2.90;;
40793;SDS011;26502;51.886;15.604;2023-07-13T06:03:03;6.60;;;3.30;;
40793;SDS011;26502;51.886;15.604;2023-07-13T06:08:09;4.10;;;2.90;;
40793;SDS011;26502;51.886;15.604;2023-07-13T06:13:15;7.10;;;2.70;;
40793;SDS011;26502;51.886;15.604;2023-07-13T06:18:21;4.30;;;2.90;;
40793;SDS011;26502;51.886;15.604;2023-07-13T06:23:27;6.40;;;3.00;;
40793;SDS011;26502;51.886;15.604;2023-07-13T06:28:34;4.30;;;2.50;;
40793;SDS011;26502;51.886;15.604;2023-07-13T06:33:40;9.10;;;3.10;;
40793;SDS011;26502;51.886;15.604;2023-07-13T06:38:47;3.90;;;2.70;;
40793;SDS011;26502;51.886;15.604;2023-07-13T06:43:52;5.40;;;3.10;;
40793;SDS011;26502;51.886;15.604;2023-07-13T06:48:58;5.50;;;2.80;;
40793;SDS011;26502;51.886;15.604;2023-07-13T06:54:04;4.30;;;3.10;;
40793;SDS011;26502;51.886;15.604;2023-07-13T06:59:10;3.10;;;2.80;;
40793;SDS011;26502;51.886;15.604;2023-07-13T07:04:15;9.80;;;3.10;;
40793;SDS011;26502;51.886;15.604;2023-07-13T07:09:21;3.90;;;3.00;;
40793;SDS011;26502;51.886;15.604;2023-07-13T07:14:27;5.80;;;3.20;;
40793;SDS011;26502;51.886;15.604;2023-07-13T07:19:32;8.70;;;3.60;;
40793;SDS011;26502;51.886;15.604;2023-07-13T07:24:39;7.20;;;3.20;;
40793;SDS011;26502;51.886;15.604;2023-07-13T07:29:44;6.50;;;3.10;;
40793;SDS011;26502;51.886;15.604;2023-07-13T07:34:50;10.70;;;3.40;;
40793;SDS011;26502;51.886;15.604;2023-07-13T07:39:56;8.30;;;3.60;;
40793;SDS011;26502;51.886;15.604;2023-07-13T07:45:02;4.60;;;3.20;;
40793;SDS011;26502;51.886;15.604;2023-07-13T07:50:09;5.40;;;3.60;;
40793;SDS011;26502;51.886;15.604;2023-07-13T07:55:15;5.60;;;3.10;;
40793;SDS011;26502;51.886;15.604;2023-07-13T08:00:21;6.70;;;3.10;;
40793;SDS011;26502;51.886;15.604;2023-07-13T08:05:27;6.40;;;3.00;;
40793;SDS011;26502;51.886;15.604;2023-07-13T08:10:34;6.00;;;3.00;;
40793;SDS011;26502;51.886;15.604;2023-07-13T08:15:40;2.50;;;2.20;;
40793;SDS011;26502;51.886;15.604;2023-07-13T08:20:46;4.60;;;2.90;;
40793;SDS011;26502;51.886;15.604;2023-07-13T08:25:52;5.00;;;2.30;;
40793;SDS011;26502;51.886;15.604;2023-07-13T08:31:01;3.50;;;1.80;;
40793;SDS011;26502;51.886;15.604;2023-07-13T08:36:08;7.50;;;1.90;;
40793;SDS011;26502;51.886;15.604;2023-07-13T08:41:14;3.20;;;2.00;;
40793;SDS011;26502;51.886;15.604;2023-07-13T08:46:23;5.20;;;1.80;;
40793;SDS011;26502;51.886;15.604;2023-07-13T08:51:38;7.70;;;1.60;;
40793;SDS011;26502;51.886;15.604;2023-07-13T08:56:48;5.80;;;2.00;;
40793;SDS011;26502;51.886;15.604;2023-07-13T09:02:10;4.90;;;1.80;;
40793;SDS011;26502;51.886;15.604;2023-07-13T09:07:29;3.80;;;1.80;;
40793;SDS011;26502;51.886;15.604;2023-07-13T09:12:51;3.80;;;1.80;;
40793;SDS011;26502;51.886;15.604;2023-07-13T09:18:10;3.90;;;1.60;;
40793;SDS011;26502;51.886;15.604;2023-07-13T09:23:21;6.20;;;1.70;;
40793;SDS011;26502;51.886;15.604;2023-07-13T09:28:29;5.50;;;1.70;;
40793;SDS011;26502;51.886;15.604;2023-07-13T09:33:42;2.40;;;1.20;;
40793;SDS011;26502;51.886;15.604;2023-07-13T09:38:58;5.60;;;1.70;;
40793;SDS011;26502;51.886;15.604;2023-07-13T09:44:08;4.00;;;1.90;;
40793;SDS011;26502;51.886;15.604;2023-07-13T09:49:15;5.20;;;1.70;;
40793;SDS011;26502;51.886;15.604;2023-07-13T09:54:23;4.60;;;1.80;;
40793;SDS011;26502;51.886;15.604;2023-07-13T09:59:31;6.70;;;1.90;;
40793;SDS011;26502;51.886;15.604;2023-07-13T10:04:43;5.70;;;2.40;;
40793;SDS011;26502;51.886;15.604;2023-07-13T10:09:50;2.10;;;1.10;;
40793;SDS011;26502;51.886;15.604;2023-07-13T10:14:58;6.00;;;1.50;;
40793;SDS011;26502;51.886;15.604;2023-07-13T10:20:08;4.30;;;1.40;;
40793;SDS011;26502;51.886;15.604;2023-07-13T10:25:17;4.50;;;1.70;;
40793;SDS011;26502;51.886;15.604;2023-07-13T10:30:26;6.20;;;1.70;;
40793;SDS011;26502;51.886;15.604;2023-07-13T10:35:35;3.10;;;1.40;;
40793;SDS011;26502;51.886;15.604;2023-07-13T10:40:41;1.70;;;1.50;;
40793;SDS011;26502;51.886;15.604;2023-07-13T10:45:52;2.20;;;1.40;;
40793;SDS011;26502;51.886;15.604;2023-07-13T10:50:59;5.30;;;1.60;;
40793;SDS011;26502;51.886;15.604;2023-07-13T10:56:18;6.80;;;1.40;;
40793;SDS011;26502;51.886;15.604;2023-07-13T11:01:27;5.50;;;1.40;;
40793;SDS011;26502;51.886;15.604;2023-07-13T11:06:52;2.00;;;1.20;;
40793;SDS011;26502;51.886;15.604;2023-07-13T11:12:00;1.80;;;1.10;;
40793;SDS011;26502;51.886;15.604;2023-07-13T11:22:44;1.10;;;0.80;;
40793;SDS011;26502;51.886;15.604;2023-07-13T11:27:52;1.80;;;1.10;;
40793;SDS011;26502;51.886;15.604;2023-07-13T11:33:11;2.60;;;1.50;;
40793;SDS011;26502;51.886;15.604;2023-07-13T11:38:21;5.80;;;1.60;;
40793;SDS011;26502;51.886;15.604;2023-07-13T11:43:31;3.40;;;1.40;;
40793;SDS011;26502;51.886;15.604;2023-07-13T11:48:37;3.90;;;1.70;;
40793;SDS011;26502;51.886;15.604;2023-07-13T11:53:45;5.60;;;1.40;;
40793;SDS011;26502;51.886;15.604;2023-07-13T11:58:55;4.00;;;1.60;;
40793;SDS011;26502;51.886;15.604;2023-07-13T12:04:02;3.10;;;1.40;;
40793;SDS011;26502;51.886;15.604;2023-07-13T12:09:11;3.80;;;1.50;;
40793;SDS011;26502;51.886;15.604;2023-07-13T12:14:19;5.00;;;1.40;;
40793;SDS011;26502;51.886;15.604;2023-07-13T12:19:28;1.70;;;1.00;;
40793;SDS011;26502;51.886;15.604;2023-07-13T12:24:34;2.70;;;1.30;;
40793;SDS011;26502;51.886;15.604;2023-07-13T12:29:48;4.00;;;1.30;;
40793;SDS011;26502;51.886;15.604;2023-07-13T12:34:57;2.00;;;1.30;;
40793;SDS011;26502;51.886;15.604;2023-07-13T12:40:17;4.30;;;1.50;;
40793;SDS011;26502;51.886;15.604;2023-07-13T12:45:26;5.20;;;1.50;;
40793;SDS011;26502;51.886;15.604;2023-07-13T12:50:36;5.50;;;1.70;;
40793;SDS011;26502;51.886;15.604;2023-07-13T12:55:46;2.50;;;1.20;;
40793;SDS011;26502;51.886;15.604;2023-07-13T13:00:54;3.10;;;1.30;;
40793;SDS011;26502;51.886;15.604;2023-07-13T13:06:02;4.20;;;1.40;;
40793;SDS011;26502;51.886;15.604;2023-07-13T13:11:10;2.60;;;1.60;;
40793;SDS011;26502;51.886;15.604;2023-07-13T13:16:21;3.40;;;1.60;;
40793;SDS011;26502;51.886;15.604;2023-07-13T13:21:33;5.60;;;1.80;;
40793;SDS011;26502;51.886;15.604;2023-07-13T13:26:39;3.30;;;1.70;;
40793;SDS011;26502;51.886;15.604;2023-07-13T13:31:47;3.30;;;1.60;;
40793;SDS011;26502;51.886;15.604;2023-07-13T13:36:53;3.20;;;1.70;;
40793;SDS011;26502;51.886;15.604;2023-07-13T13:41:59;4.30;;;2.10;;
40793;SDS011;26502;51.886;15.604;2023-07-13T13:47:07;3.20;;;1.50;;
40793;SDS011;26502;51.886;15.604;2023-07-13T13:52:25;2.90;;;1.50;;
40793;SDS011;26502;51.886;15.604;2023-07-13T13:57:31;5.70;;;1.60;;
40793;SDS011;26502;51.886;15.604;2023-07-13T14:02:37;5.80;;;1.60;;
40793;SDS011;26502;51.886;15.604;2023-07-13T14:07:42;5.10;;;1.70;;
40793;SDS011;26502;51.886;15.604;2023-07-13T14:12:50;3.70;;;2.00;;
40793;SDS011;26502;51.886;15.604;2023-07-13T14:17:59;2.40;;;1.50;;
40793;SDS011;26502;51.886;15.604;2023-07-13T14:23:04;5.40;;;1.90;;
40793;SDS011;26502;51.886;15.604;2023-07-13T14:28:14;3.20;;;1.40;;
40793;SDS011;26502;51.886;15.604;2023-07-13T14:33:25;3.10;;;1.70;;
40793;SDS011;26502;51.886;15.604;2023-07-13T14:38:31;2.90;;;1.70;;
40793;SDS011;26502;51.886;15.604;2023-07-13T14:43:37;2.80;;;1.30;;
40793;SDS011;26502;51.886;15.604;2023-07-13T14:48:43;2.60;;;1.60;;
40793;SDS011;26502;51.886;15.604;2023-07-13T14:53:49;4.00;;;1.60;;
40793;SDS011;26502;51.886;15.604;2023-07-13T14:58:54;4.40;;;1.50;;
40793;SDS011;26502;51.886;15.604;2023-07-13T15:04:00;6.20;;;1.80;;
40793;SDS011;26502;51.886;15.604;2023-07-13T15:09:08;5.00;;;1.60;;
40793;SDS011;26502;51.886;15.604;2023-07-13T15:14:16;3.30;;;1.50;;
40793;SDS011;26502;51.886;15.604;2023-07-13T15:19:22;3.70;;;1.50;;
40793;SDS011;26502;51.886;15.604;2023-07-13T15:24:29;2.30;;;1.70;;
40793;SDS011;26502;51.886;15.604;2023-07-13T15:29:35;6.20;;;1.40;;
40793;SDS011;26502;51.886;15.604;2023-07-13T15:34:40;2.90;;;1.70;;
40793;SDS011;26502;51.886;15.604;2023-07-13T15:39:46;2.80;;;1.50;;
40793;SDS011;26502;51.886;15.604;2023-07-13T15:44:52;5.60;;;1.40;;
40793;SDS011;26502;51.886;15.604;2023-07-13T15:49:58;2.70;;;1.70;;
40793;SDS011;26502;51.886;15.604;2023-07-13T15:55:05;6.50;;;1.50;;
40793;SDS011;26502;51.886;15.604;2023-07-13T16:00:14;5.00;;;2.00;;
40793;SDS011;26502;51.886;15.604;2023-07-13T16:05:24;3.90;;;1.40;;
40793;SDS011;26502;51.886;15.604;2023-07-13T16:10:32;8.40;;;1.60;;
40793;SDS011;26502;51.886;15.604;2023-07-13T16:15:40;7.00;;;1.40;;
40793;SDS011;26502;51.886;15.604;2023-07-13T16:20:47;2.70;;;1.50;;
40793;SDS011;26502;51.886;15.604;2023-07-13T16:25:54;6.10;;;1.40;;
40793;SDS011;26502;51.886;15.604;2023-07-13T16:31:00;6.00;;;1.50;;
40793;SDS011;26502;51.886;15.604;2023-07-13T16:36:09;6.80;;;2.00;;
40793;SDS011;26502;51.886;15.604;2023-07-13T16:41:16;4.20;;;1.50;;
40793;SDS011;26502;51.886;15.604;2023-07-13T16:46:22;5.50;;;1.70;;
40793;SDS011;26502;51.886;15.604;2023-07-13T16:51:28;5.60;;;1.30;;
40793;SDS011;26502;51.886;15.604;2023-07-13T16:56:34;2.60;;;1.50;;
40793;SDS011;26502;51.886;15.604;2023-07-13T17:01:40;4.90;;;1.50;;
40793;SDS011;26502;51.886;15.604;2023-07-13T17:06:45;4.70;;;1.50;;
40793;SDS011;26502;51.886;15.604;2023-07-13T17:11:53;1.80;;;1.40;;
40793;SDS011;26502;51.886;15.604;2023-07-13T17:16:58;2.70;;;1.50;;
40793;SDS011;26502;51.886;15.604;2023-07-13T17:22:05;4.50;;;1.70;;
40793;SDS011;26502;51.886;15.604;2023-07-13T17:27:12;4.60;;;1.50;;
40793;SDS011;26502;51.886;15.604;2023-07-13T17:32:18;6.70;;;1.30;;
40793;SDS011;26502;51.886;15.604;2023-07-13T17:37:24;4.50;;;1.30;;
40793;SDS011;26502;51.886;15.604;2023-07-13T17:42:30;5.80;;;1.30;;
40793;SDS011;26502;51.886;15.604;2023-07-13T17:47:36;3.10;;;1.60;;
40793;SDS011;26502;51.886;15.604;2023-07-13T17:52:43;5.60;;;1.60;;
40793;SDS011;26502;51.886;15.604;2023-07-13T17:57:49;4.70;;;1.40;;
40793;SDS011;26502;51.886;15.604;2023-07-13T18:02:55;7.00;;;1.60;;
40793;SDS011;26502;51.886;15.604;2023-07-13T18:08:08;3.30;;;1.50;;
40793;SDS011;26502;51.886;15.604;2023-07-13T18:13:25;5.40;;;1.60;;
40793;SDS011;26502;51.886;15.604;2023-07-13T18:18:33;2.70;;;1.50;;
40793;SDS011;26502;51.886;15.604;2023-07-13T18:23:40;4.60;;;1.50;;
40793;SDS011;26502;51.886;15.604;2023-07-13T18:28:47;2.80;;;1.60;;
40793;SDS011;26502;51.886;15.604;2023-07-13T18:33:53;7.00;;;1.70;;
40793;SDS011;26502;51.886;15.604;2023-07-13T18:39:00;6.90;;;1.60;;
40793;SDS011;26502;51.886;15.604;2023-07-13T18:44:08;6.20;;;1.70;;
40793;SDS011;26502;51.886;15.604;2023-07-13T18:49:14;4.90;;;1.70;;
40793;SDS011;26502;51.886;15.604;2023-07-13T18:54:20;15.70;;;2.10;;
40793;SDS011;26502;51.886;15.604;2023-07-13T18:59:25;10.10;;;2.10;;
40793;SDS011;26502;51.886;15.604;2023-07-13T19:04:31;3.60;;;1.60;;
40793;SDS011;26502;51.886;15.604;2023-07-13T19:09:37;7.00;;;1.70;;
40793;SDS011;26502;51.886;15.604;2023-07-13T19:14:43;7.40;;;1.50;;
40793;SDS011;26502;51.886;15.604;2023-07-13T19:19:50;5.70;;;2.00;;
40793;SDS011;26502;51.886;15.604;2023-07-13T19:24:55;4.00;;;2.40;;
40793;SDS011;26502;51.886;15.604;2023-07-13T19:30:02;7.60;;;2.30;;
40793;SDS011;26502;51.886;15.604;2023-07-13T19:35:12;3.00;;;1.70;;
40793;SDS011;26502;51.886;15.604;2023-07-13T19:40:20;4.50;;;1.60;;
40793;SDS011;26502;51.886;15.604;2023-07-13T19:45:28;4.20;;;2.00;;
40793;SDS011;26502;51.886;15.604;2023-07-13T19:50:34;7.20;;;2.10;;
40793;SDS011;26502;51.886;15.604;2023-07-13T19:55:40;6.40;;;1.60;;
40793;SDS011;26502;51.886;15.604;2023-07-13T20:00:46;4.00;;;2.00;;
40793;SDS011;26502;51.886;15.604;2023-07-13T20:05:52;4.30;;;1.80;;
40793;SDS011;26502;51.886;15.604;2023-07-13T20:10:58;5.20;;;1.90;;
40793;SDS011;26502;51.886;15.604;2023-07-13T20:16:04;5.90;;;2.10;;
40793;SDS011;26502;51.886;15.604;2023-07-13T20:21:13;4.90;;;1.90;;
40793;SDS011;26502;51.886;15.604;2023-07-13T20:26:19;5.50;;;2.10;;
40793;SDS011;26502;51.886;15.604;2023-07-13T20:31:27;5.70;;;2.40;;
40793;SDS011;26502;51.886;15.604;2023-07-13T20:36:37;10.00;;;3.20;;
40793;SDS011;26502;51.886;15.604;2023-07-13T20:41:44;8.20;;;4.50;;
40793;SDS011;26502;51.886;15.604;2023-07-13T20:46:50;12.00;;;5.90;;
40793;SDS011;26502;51.886;15.604;2023-07-13T20:51:56;8.50;;;3.60;;
40793;SDS011;26502;51.886;15.604;2023-07-13T20:57:02;5.10;;;2.30;;
40793;SDS011;26502;51.886;15.604;2023-07-13T21:02:13;4.70;;;2.00;;
40793;SDS011;26502;51.886;15.604;2023-07-13T21:07:32;3.90;;;1.90;;
40793;SDS011;26502;51.886;15.604;2023-07-13T21:12:37;2.60;;;1.40;;
40793;SDS011;26502;51.886;15.604;2023-07-13T21:17:43;3.60;;;1.40;;
40793;SDS011;26502;51.886;15.604;2023-07-13T21:22:51;2.90;;;1.40;;
40793;SDS011;26502;51.886;15.604;2023-07-13T21:27:57;4.30;;;1.50;;
40793;SDS011;26502;51.886;15.604;2023-07-13T21:33:04;4.60;;;1.60;;
40793;SDS011;26502;51.886;15.604;2023-07-13T21:38:15;4.10;;;1.30;;
40793;SDS011;26502;51.886;15.604;2023-07-13T21:43:23;5.50;;;1.50;;
40793;SDS011;26502;51.886;15.604;2023-07-13T21:48:29;9.10;;;1.70;;
40793;SDS011;26502;51.886;15.604;2023-07-13T21:53:35;3.20;;;1.90;;
40793;SDS011;26502;51.886;15.604;2023-07-13T21:58:42;4.30;;;1.50;;
40793;SDS011;26502;51.886;15.604;2023-07-13T22:03:49;6.30;;;1.40;;
40793;SDS011;26502;51.886;15.604;2023-07-13T22:08:57;2.30;;;1.70;;
40793;SDS011;26502;51.886;15.604;2023-07-13T22:14:03;4.20;;;1.60;;
40793;SDS011;26502;51.886;15.604;2023-07-13T22:19:11;2.40;;;1.80;;
40793;SDS011;26502;51.886;15.604;2023-07-13T22:24:18;2.40;;;1.20;;
40793;SDS011;26502;51.886;15.604;2023-07-13T22:29:25;4.70;;;1.40;;
40793;SDS011;26502;51.886;15.604;2023-07-13T22:34:35;5.30;;;1.70;;
40793;SDS011;26502;51.886;15.604;2023-07-13T22:39:42;3.80;;;1.50;;
40793;SDS011;26502;51.886;15.604;2023-07-13T22:44:49;4.10;;;1.50;;
40793;SDS011;26502;51.886;15.604;2023-07-13T22:49:55;4.60;;;1.30;;
40793;SDS011;26502;51.886;15.604;2023-07-13T22:55:01;3.60;;;1.70;;
40793;SDS011;26502;51.886;15.604;2023-07-13T23:00:17;2.40;;;1.60;;
40793;SDS011;26502;51.886;15.604;2023-07-13T23:05:23;3.00;;;1.80;;
40793;SDS011;26502;51.886;15.604;2023-07-13T23:10:29;5.30;;;2.30;;
40793;SDS011;26502;51.886;15.604;2023-07-13T23:15:35;6.40;;;1.90;;
40793;SDS011;26502;51.886;15.604;2023-07-13T23:20:40;5.10;;;2.60;;
40793;SDS011;26502;51.886;15.604;2023-07-13T23:25:47;6.10;;;2.50;;
40793;SDS011;26502;51.886;15.604;2023-07-13T23:30:53;3.20;;;2.40;;
40793;SDS011;26502;51.886;15.604;2023-07-13T23:35:58;4.60;;;2.40;;
40793;SDS011;26502;51.886;15.604;2023-07-13T23:41:07;5.00;;;2.40;;
40793;SDS011;26502;51.886;15.604;2023-07-13T23:46:19;3.50;;;2.30;;
40793;SDS011;26502;51.886;15.604;2023-07-13T23:51:29;4.30;;;2.40;;
40793;SDS011;26502;51.886;15.604;2023-07-13T23:56:35;4.20;;;2.00;;
